createdAt,value
2022-11-16T00:19:37.888Z,58.5
2022-11-16T00:39:37.827Z,58.6
2022-11-16T00:59:37.837Z,58.5
2022-11-16T01:19:37.801Z,58.6
2022-11-16T01:39:37.755Z,58.6
2022-11-16T01:59:37.727Z,58.6
2022-11-16T02:19:37.728Z,58.7
2022-11-16T02:39:37.731Z,58.7
2022-11-16T02:59:37.647Z,58.7
2022-11-16T03:19:37.658Z,58.7
2022-11-16T03:39:37.631Z,58.8
2022-11-16T03:59:37.588Z,58.8
2022-11-16T04:19:37.572Z,58.8
2022-11-16T04:39:37.547Z,58.6
2022-11-16T04:59:37.529Z,58.5
2022-11-16T05:19:37.525Z,58.4
2022-11-16T05:39:37.476Z,58.3
2022-11-16T05:59:37.447Z,58.3
2022-11-16T06:39:37.447Z,58.2
2022-11-16T06:59:37.403Z,58.4
2022-11-16T07:19:37.356Z,58.6
2022-11-16T07:39:37.317Z,58.7
2022-11-16T07:59:37.336Z,58.8
2022-11-16T08:19:37.296Z,58.8
2022-11-16T08:39:37.290Z,58.7
2022-11-16T08:59:37.257Z,58.7
2022-11-16T09:19:37.216Z,58.8
2022-11-16T09:39:37.177Z,58.9
2022-11-16T09:59:37.253Z,58.9
2022-11-16T10:19:37.156Z,59.0
2022-11-16T10:39:37.113Z,59.1
2022-11-16T10:59:37.091Z,59.0
2022-11-16T11:19:37.143Z,59.0
2022-11-16T11:39:37.046Z,58.4
2022-11-16T11:59:37.000Z,59.0
2022-11-16T12:19:36.984Z,59.0
2022-11-16T12:39:36.961Z,59.1
2022-11-16T12:59:36.931Z,59.1
2022-11-16T13:19:36.892Z,59.1
2022-11-16T13:39:36.907Z,59.0
2022-11-16T13:59:36.879Z,59.1
2022-11-16T14:19:36.852Z,59.1
2022-11-16T14:39:36.803Z,59.2
2022-11-16T14:59:36.801Z,59.2
2022-11-16T15:19:36.884Z,59.3
2022-11-16T15:39:36.750Z,59.1
2022-11-16T15:59:36.695Z,59.0
2022-11-16T16:19:36.687Z,58.4
2022-11-16T16:39:36.653Z,58.1
2022-11-16T16:59:36.637Z,58.6
2022-11-16T17:19:36.621Z,58.7
2022-11-16T17:39:36.575Z,58.7
2022-11-16T17:59:36.597Z,58.7
2022-11-16T18:19:36.633Z,58.7
2022-11-16T18:39:36.522Z,58.7
2022-11-16T18:59:36.474Z,58.6
2022-11-16T19:19:36.442Z,58.6
2022-11-16T19:39:36.533Z,58.6
2022-11-16T19:59:36.393Z,58.6
2022-11-16T20:19:36.355Z,58.6
2022-11-16T20:39:36.374Z,58.6
2022-11-16T20:59:36.488Z,58.5
2022-11-16T21:19:36.280Z,58.4
2022-11-16T21:39:36.289Z,58.4
2022-11-16T21:59:36.253Z,58.4
2022-11-16T22:19:36.234Z,58.5
2022-11-16T22:39:36.278Z,58.6
2022-11-16T22:59:36.233Z,58.6
2022-11-16T23:19:36.148Z,58.6
2022-11-16T23:39:36.152Z,58.7
2022-11-16T23:59:36.120Z,58.7
